Back to Top

Language: 

My Weather Underground Personal Weather Station Historical Data with Graphs...

Delerius Weather Station Historical Data
Daily Summary for November 25, 2017 Units:  English    Metric   Both
« Previous Day
Next Day »
Daily Weekly Monthly Yearly Custom
  High: Low: Average:
Temperature: 43.5 °F 32.9 °F 37.5 °F
Dew Point: 37.3 °F 31.0 °F 34.3 °F
Humidity: 94 % 77 % 88 %
Wind Speed: 17.0 mph 0.0 mph 8.9 mph
Wind Gust: 26.0 mph - -
Wind:- - West
Pressure: 30.04 in 29.84 in -
Precipitation: 0.02 in    
Historical Graphs
 
 
Tabular Data for November 25, 2017
Time Temperature Dew Point Pressure Wind Wind Speed Wind Gust Humidity Rainfall Rate (Hourly) solar Conditions
00:00 35.1 °F 33.5 °F 29.85 in WNW 3.0 mph 5.0 mph 94 % 0.00 in 0 W/m2
00:05 34.9 °F 33.3 °F 29.85 in WNW 2.0 mph 5.0 mph 94 % 0.00 in 0 W/m2
00:10 34.9 °F 33.3 °F 29.86 in WSW 5.0 mph 8.0 mph 94 % 0.00 in 0 W/m2
00:15 35.1 °F 33.5 °F 29.85 in SW 2.0 mph 4.0 mph 94 % 0.00 in 0 W/m2
00:20 35.2 °F 33.7 °F 29.85 in SW 2.0 mph 7.0 mph 94 % 0.00 in 0 W/m2
00:25 35.1 °F 33.5 °F 29.85 in WSW 1.0 mph 2.0 mph 94 % 0.00 in 0 W/m2
00:30 35.1 °F 33.5 °F 29.85 in WSW 3.0 mph 6.0 mph 94 % 0.00 in 0 W/m2
00:35 35.1 °F 33.5 °F 29.85 in WSW 2.0 mph 6.0 mph 94 % 0.00 in 0 W/m2
00:40 35.1 °F 33.5 °F 29.85 in WSW 2.0 mph 5.0 mph 94 % 0.00 in 0 W/m2
00:45 35.1 °F 33.5 °F 29.85 in WSW 3.0 mph 6.0 mph 94 % 0.00 in 0 W/m2
00:50 35.1 °F 33.2 °F 29.85 in WSW 1.0 mph 4.0 mph 93 % 0.00 in 0 W/m2
00:55 34.9 °F 33.1 °F 29.85 in West 6.0 mph 11.0 mph 93 % 0.00 in 0 W/m2
01:00 35.1 °F 33.2 °F 29.85 in West 9.0 mph 12.0 mph 93 % 0.00 in 0 W/m2
01:05 35.1 °F 33.2 °F 29.85 in West 6.0 mph 9.0 mph 93 % 0.00 in 0 W/m2
01:10 35.2 °F 33.4 °F 29.85 in West 6.0 mph 9.0 mph 93 % 0.00 in 0 W/m2
01:15 35.2 °F 33.4 °F 29.85 in WNW 6.0 mph 10.0 mph 93 % 0.00 in 0 W/m2
01:20 35.4 °F 33.6 °F 29.85 in WNW 6.0 mph 9.0 mph 93 % 0.00 in 0 W/m2
01:26 35.4 °F 33.6 °F 29.85 in WNW 7.0 mph 9.0 mph 93 % 0.00 in 0 W/m2
01:31 35.4 °F 33.3 °F 29.85 in WNW 6.0 mph 9.0 mph 92 % 0.00 in 0 W/m2
01:36 35.2 °F 33.1 °F 29.85 in West 4.0 mph 8.0 mph 92 % 0.00 in 0 W/m2
01:41 35.2 °F 33.1 °F 29.85 in West 3.0 mph 6.0 mph 92 % 0.01 in 0 W/m2
01:46 35.1 °F 33.0 °F 29.85 in WNW 2.0 mph 6.0 mph 92 % 0.01 in 0 W/m2
01:51 34.9 °F 32.8 °F 29.85 in WNW 2.0 mph 7.0 mph 92 % 0.01 in 0 W/m2
01:56 34.9 °F 32.8 °F 29.85 in WNW 5.0 mph 11.0 mph 92 % 0.01 in 0 W/m2
02:01 34.7 °F 32.6 °F 29.85 in WNW 7.0 mph 10.0 mph 92 % 0.01 in 0 W/m2
02:06 34.9 °F 32.8 °F 29.85 in WNW 5.0 mph 9.0 mph 92 % 0.01 in 0 W/m2
02:11 34.9 °F 32.8 °F 29.86 in WNW 7.0 mph 10.0 mph 92 % 0.01 in 0 W/m2
02:16 34.9 °F 32.8 °F 29.85 in West 6.0 mph 11.0 mph 92 % 0.01 in 0 W/m2
02:21 34.9 °F 32.8 °F 29.85 in West 5.0 mph 9.0 mph 92 % 0.01 in 0 W/m2
02:26 34.9 °F 32.8 °F 29.85 in West 5.0 mph 6.0 mph 92 % 0.01 in 0 W/m2
02:31 34.9 °F 32.8 °F 29.85 in West 4.0 mph 8.0 mph 92 % 0.01 in 0 W/m2
02:36 34.7 °F 32.6 °F 29.85 in West 4.0 mph 6.0 mph 92 % 0.01 in 0 W/m2
02:41 34.5 °F 32.4 °F 29.85 in WNW 3.0 mph 6.0 mph 92 % 0.00 in 0 W/m2
02:42 34.5 °F 32.4 °F 29.85 in West 3.0 mph 6.0 mph 92 % 0.00 in 0 W/m2
02:47 34.5 °F 32.4 °F 29.85 in West 5.0 mph 7.0 mph 92 % 0.00 in 0 W/m2
02:52 34.3 °F 32.3 °F 29.85 in WNW 3.0 mph 5.0 mph 92 % 0.00 in 0 W/m2
02:57 34.2 °F 32.1 °F 29.85 in WNW 2.0 mph 6.0 mph 92 % 0.00 in 0 W/m2
03:02 34.0 °F 31.9 °F 29.85 in Calm   2.0 mph 92 % 0.00 in 0 W/m2
03:07 33.8 °F 31.7 °F 29.85 in WNW 1.0 mph 2.0 mph 92 % 0.00 in 0 W/m2
03:12 33.6 °F 31.5 °F 29.85 in Calm     92 % 0.00 in 0 W/m2
03:17 33.4 °F 31.4 °F 29.85 in Calm   2.0 mph 92 % 0.00 in 0 W/m2
03:21 33.3 °F 31.2 °F 29.85 in Calm     92 % 0.00 in 0 W/m2
03:23 33.1 °F 31.0 °F 29.85 in Calm   1.0 mph 92 % 0.00 in 0 W/m2
03:25 33.1 °F 31.0 °F 29.84 in West 1.0 mph 4.0 mph 92 % 0.00 in 0 W/m2
03:30 33.1 °F 31.3 °F 29.84 in West 1.0 mph 3.0 mph 93 % 0.00 in 0 W/m2
03:35 33.1 °F 31.3 °F 29.84 in Calm   2.0 mph 93 % 0.00 in 0 W/m2
03:40 33.1 °F 31.3 °F 29.84 in WSW 2.0 mph 6.0 mph 93 % 0.00 in 0 W/m2
03:45 33.1 °F 31.3 °F 29.84 in West 3.0 mph 6.0 mph 93 % 0.00 in 0 W/m2
03:50 33.1 °F 31.3 °F 29.84 in Calm   2.0 mph 93 % 0.00 in 0 W/m2
03:55 33.1 °F 31.3 °F 29.84 in West 1.0 mph 4.0 mph 93 % 0.00 in 0 W/m2
04:00 32.9 °F 31.1 °F 29.84 in West 2.0 mph 4.0 mph 93 % 0.00 in 0 W/m2
04:05 32.9 °F 31.1 °F 29.84 in WSW 4.0 mph 8.0 mph 93 % 0.00 in 0 W/m2
04:11 33.3 °F 31.7 °F 29.84 in West 6.0 mph 8.0 mph 94 % 0.00 in 0 W/m2
04:16 33.6 °F 32.1 °F 29.84 in West 9.0 mph 14.0 mph 94 % 0.00 in 0 W/m2
04:21 34.0 °F 32.4 °F 29.84 in West 8.0 mph 12.0 mph 94 % 0.00 in 0 W/m2
04:26 34.3 °F 32.8 °F 29.84 in West 8.0 mph 12.0 mph 94 % 0.00 in 0 W/m2
04:31 34.5 °F 33.0 °F 29.84 in West 6.0 mph 10.0 mph 94 % 0.00 in 0 W/m2
04:36 34.5 °F 32.7 °F 29.84 in West 7.0 mph 11.0 mph 93 % 0.00 in 0 W/m2
04:41 34.7 °F 32.9 °F 29.84 in West 7.0 mph 10.0 mph 93 % 0.00 in 0 W/m2
04:46 34.7 °F 32.9 °F 29.84 in West 8.0 mph 12.0 mph 93 % 0.00 in 0 W/m2
04:51 34.9 °F 33.1 °F 29.84 in West 9.0 mph 13.0 mph 93 % 0.00 in 0 W/m2
04:56 34.9 °F 33.1 °F 29.84 in West 8.0 mph 15.0 mph 93 % 0.00 in 0 W/m2
05:06 34.7 °F 32.6 °F 29.84 in West 8.0 mph 11.0 mph 92 % 0.00 in 0 W/m2
05:11 34.7 °F 32.6 °F 29.84 in WNW 6.0 mph 10.0 mph 92 % 0.00 in 0 W/m2
05:16 34.7 °F 32.6 °F 29.84 in West 6.0 mph 11.0 mph 92 % 0.00 in 0 W/m2
05:21 34.7 °F 32.6 °F 29.84 in West 6.0 mph 11.0 mph 92 % 0.00 in 0 W/m2
05:26 34.7 °F 32.6 °F 29.84 in West 8.0 mph 12.0 mph 92 % 0.00 in 0 W/m2
05:31 34.7 °F 32.6 °F 29.84 in WNW 8.0 mph 11.0 mph 92 % 0.00 in 0 W/m2
05:36 34.7 °F 32.6 °F 29.84 in WNW 8.0 mph 11.0 mph 92 % 0.00 in 0 W/m2
05:41 34.7 °F 32.9 °F 29.84 in WNW 7.0 mph 11.0 mph 93 % 0.00 in 0 W/m2
05:46 34.7 °F 32.9 °F 29.84 in West 6.0 mph 8.0 mph 93 % 0.00 in 0 W/m2
05:51 34.7 °F 32.9 °F 29.84 in West 7.0 mph 9.0 mph 93 % 0.00 in 0 W/m2
05:56 34.7 °F 32.9 °F 29.84 in West 7.0 mph 10.0 mph 93 % 0.00 in 0 W/m2
06:01 34.9 °F 33.1 °F 29.84 in West 8.0 mph 12.0 mph 93 % 0.00 in 0 W/m2
06:06 35.1 °F 33.0 °F 29.84 in West 6.0 mph 10.0 mph 92 % 0.00 in 0 W/m2
06:11 35.1 °F 33.0 °F 29.85 in West 6.0 mph 12.0 mph 92 % 0.00 in 0 W/m2
06:16 35.1 °F 33.0 °F 29.85 in WNW 6.0 mph 10.0 mph 92 % 0.00 in 0 W/m2
06:21 35.2 °F 33.1 °F 29.85 in West 8.0 mph 14.0 mph 92 % 0.00 in 0 W/m2
06:27 35.4 °F 33.3 °F 29.85 in West 8.0 mph 13.0 mph 92 % 0.00 in 0 W/m2
06:32 35.4 °F 33.3 °F 29.85 in West 6.0 mph 9.0 mph 92 % 0.00 in 0 W/m2
06:37 35.4 °F 33.3 °F 29.85 in West 7.0 mph 10.0 mph 92 % 0.00 in 0 W/m2
06:42 35.4 °F 33.3 °F 29.86 in West 7.0 mph 13.0 mph 92 % 0.00 in 0 W/m2
06:47 35.4 °F 33.3 °F 29.85 in West 8.0 mph 13.0 mph 92 % 0.00 in 0 W/m2
06:52 35.4 °F 33.6 °F 29.84 in West 8.0 mph 13.0 mph 93 % 0.00 in 0 W/m2
06:57 35.4 °F 33.6 °F 29.84 in West 6.0 mph 8.0 mph 93 % 0.00 in 0 W/m2
07:02 35.2 °F 33.4 °F 29.84 in WNW 5.0 mph 7.0 mph 93 % 0.00 in 0 W/m2
07:07 35.2 °F 33.4 °F 29.84 in West 7.0 mph 10.0 mph 93 % 0.00 in 0 W/m2
07:12 35.2 °F 33.4 °F 29.84 in West 8.0 mph 14.0 mph 93 % 0.00 in 0 W/m2
07:17 35.2 °F 33.4 °F 29.84 in West 8.0 mph 13.0 mph 93 % 0.00 in 0 W/m2
07:22 35.4 °F 33.6 °F 29.84 in West 7.0 mph 10.0 mph 93 % 0.00 in 0 W/m2
07:27 35.4 °F 33.6 °F 29.84 in WNW 8.0 mph 13.0 mph 93 % 0.00 in 0 W/m2
07:32 35.2 °F 33.1 °F 29.85 in WNW 9.0 mph 15.0 mph 92 % 0.00 in 0 W/m2
07:37 35.2 °F 33.1 °F 29.85 in WNW 7.0 mph 13.0 mph 92 % 0.00 in 0 W/m2
07:42 35.2 °F 33.1 °F 29.86 in WNW 5.0 mph 9.0 mph 92 % 0.00 in 0 W/m2
07:47 35.2 °F 33.1 °F 29.86 in WNW 7.0 mph 12.0 mph 92 % 0.00 in 0 W/m2
07:52 35.2 °F 33.1 °F 29.86 in WNW 8.0 mph 12.0 mph 92 % 0.00 in 5 W/m2
07:57 35.2 °F 33.1 °F 29.86 in WNW 8.0 mph 15.0 mph 92 % 0.00 in 5 W/m2
08:02 35.4 °F 33.3 °F 29.87 in WNW 8.0 mph 13.0 mph 92 % 0.00 in 7 W/m2
08:07 35.4 °F 33.3 °F 29.87 in WNW 11.0 mph 19.0 mph 92 % 0.00 in 9 W/m2
08:12 35.4 °F 33.3 °F 29.87 in WNW 9.0 mph 12.0 mph 92 % 0.00 in 11 W/m2
08:17 35.4 °F 33.3 °F 29.87 in WNW 8.0 mph 12.0 mph 92 % 0.00 in 12 W/m2
08:22 35.6 °F 33.5 °F 29.87 in WNW 9.0 mph 12.0 mph 92 % 0.00 in 14 W/m2
08:27 35.6 °F 33.5 °F 29.87 in WNW 6.0 mph 12.0 mph 92 % 0.00 in 16 W/m2
08:32 35.6 °F 33.5 °F 29.88 in WNW 7.0 mph 11.0 mph 92 % 0.00 in 21 W/m2
08:37 35.6 °F 33.5 °F 29.88 in WNW 5.0 mph 9.0 mph 92 % 0.00 in 26 W/m2
08:42 35.6 °F 33.5 °F 29.88 in WNW 6.0 mph 12.0 mph 92 % 0.00 in 60 W/m2
08:47 35.8 °F 33.7 °F 29.88 in West 6.0 mph 9.0 mph 92 % 0.00 in 63 W/m2
08:48 36.0 °F 33.9 °F 29.88 in West 6.0 mph 11.0 mph 92 % 0.00 in 58 W/m2
08:53 36.0 °F 33.9 °F 29.88 in West 6.0 mph 9.0 mph 92 % 0.00 in 56 W/m2
08:58 36.1 °F 34.0 °F 29.89 in West 7.0 mph 10.0 mph 92 % 0.00 in 65 W/m2
09:04 36.1 °F 34.0 °F 29.89 in WNW 7.0 mph 11.0 mph 92 % 0.00 in 72 W/m2
09:09 36.3 °F 34.2 °F 29.89 in WNW 8.0 mph 15.0 mph 92 % 0.01 in 88 W/m2
09:14 36.3 °F 34.2 °F 29.89 in WNW 8.0 mph 11.0 mph 92 % 0.01 in 81 W/m2
09:19 36.5 °F 34.4 °F 29.90 in WNW 6.0 mph 10.0 mph 92 % 0.01 in 81 W/m2
09:24 36.7 °F 34.6 °F 29.90 in WNW 8.0 mph 11.0 mph 92 % 0.01 in 86 W/m2
09:29 36.9 °F 35.0 °F 29.90 in WNW 7.0 mph 10.0 mph 93 % 0.01 in 88 W/m2
09:34 36.9 °F 35.0 °F 29.90 in West 8.0 mph 16.0 mph 93 % 0.01 in 116 W/m2
09:39 37.0 °F 34.9 °F 29.90 in West 8.0 mph 12.0 mph 92 % 0.01 in 49 W/m2
09:44 37.2 °F 35.1 °F 29.90 in West 10.0 mph 18.0 mph 92 % 0.01 in 40 W/m2
09:49 37.2 °F 34.8 °F 29.90 in West 10.0 mph 15.0 mph 91 % 0.01 in 42 W/m2
09:54 37.0 °F 34.7 °F 29.90 in West 10.0 mph 15.0 mph 91 % 0.01 in 56 W/m2
09:59 37.2 °F 34.8 °F 29.90 in West 9.0 mph 16.0 mph 91 % 0.01 in 49 W/m2
10:04 37.2 °F 34.8 °F 29.90 in West 9.0 mph 14.0 mph 91 % 0.01 in 53 W/m2
10:09 37.2 °F 34.8 °F 29.90 in West 7.0 mph 13.0 mph 91 % 0.00 in 67 W/m2
10:14 37.4 °F 35.0 °F 29.90 in WNW 8.0 mph 13.0 mph 91 % 0.00 in 62 W/m2
10:16 37.6 °F 35.2 °F 29.91 in WNW 10.0 mph 13.0 mph 91 % 0.00 in 204 W/m2
10:21 37.8 °F 35.4 °F 29.90 in WNW 7.0 mph 11.0 mph 91 % 0.00 in 246 W/m2
10:26 38.1 °F 35.7 °F 29.90 in WNW 10.0 mph 15.0 mph 91 % 0.00 in 251 W/m2
10:31 38.8 °F 36.4 °F 29.90 in West 10.0 mph 13.0 mph 91 % 0.00 in 262 W/m2
10:36 39.0 °F 36.3 °F 29.90 in West 9.0 mph 12.0 mph 90 % 0.00 in 264 W/m2
10:41 39.6 °F 36.6 °F 29.90 in West 9.0 mph 15.0 mph 89 % 0.00 in 264 W/m2
10:46 39.7 °F 36.8 °F 29.91 in West 10.0 mph 15.0 mph 89 % 0.00 in 251 W/m2
10:51 39.9 °F 36.7 °F 29.91 in West 7.0 mph 12.0 mph 88 % 0.00 in 265 W/m2
10:56 40.1 °F 36.8 °F 29.91 in WNW 6.0 mph 9.0 mph 88 % 0.00 in 258 W/m2
11:01 40.3 °F 37.0 °F 29.91 in WNW 7.0 mph 11.0 mph 88 % 0.00 in 253 W/m2
11:06 40.5 °F 36.9 °F 29.91 in WNW 6.0 mph 13.0 mph 87 % 0.00 in 271 W/m2
11:11 40.8 °F 37.3 °F 29.92 in WNW 7.0 mph 13.0 mph 87 % 0.00 in 279 W/m2
11:16 41.0 °F 37.1 °F 29.92 in WNW 6.0 mph 10.0 mph 86 % 0.00 in 283 W/m2
11:17 41.2 °F 37.3 °F 29.92 in WNW 7.0 mph 13.0 mph 86 % 0.00 in 287 W/m2
11:22 41.2 °F 37.0 °F 29.92 in WNW 7.0 mph 12.0 mph 85 % 0.00 in 260 W/m2
11:27 41.4 °F 37.2 °F 29.92 in WNW 7.0 mph 10.0 mph 85 % 0.00 in 239 W/m2
11:32 41.4 °F 37.2 °F 29.92 in WNW 7.0 mph 11.0 mph 85 % 0.00 in 283 W/m2
11:37 41.4 °F 37.2 °F 29.92 in WNW 9.0 mph 15.0 mph 85 % 0.00 in 285 W/m2
11:42 41.5 °F 37.1 °F 29.92 in WNW 12.0 mph 19.0 mph 84 % 0.00 in 285 W/m2
11:47 41.5 °F 37.1 °F 29.92 in WNW 10.0 mph 15.0 mph 84 % 0.00 in 285 W/m2
11:52 41.7 °F 36.9 °F 29.92 in WNW 11.0 mph 23.0 mph 83 % 0.00 in 281 W/m2
11:57 41.9 °F 37.1 °F 29.92 in West 13.0 mph 21.0 mph 83 % 0.00 in 281 W/m2
12:02 42.1 °F 37.0 °F 29.92 in West 15.0 mph 23.0 mph 82 % 0.00 in 279 W/m2
12:12 42.1 °F 37.0 °F 29.93 in WNW 12.0 mph 20.0 mph 82 % 0.00 in 278 W/m2
12:17 42.3 °F 37.2 °F 29.92 in WNW 12.0 mph 21.0 mph 82 % 0.00 in 276 W/m2
12:22 42.4 °F 37.0 °F 29.93 in WNW 12.0 mph 23.0 mph 81 % 0.00 in 276 W/m2
12:27 42.4 °F 36.7 °F 29.93 in WNW 12.0 mph 20.0 mph 80 % 0.00 in 274 W/m2
12:28 42.4 °F 36.7 °F 29.93 in WNW 13.0 mph 20.0 mph 80 % 0.00 in 272 W/m2
12:33 42.6 °F 36.9 °F 29.93 in WNW 14.0 mph 20.0 mph 80 % 0.00 in 271 W/m2
12:34 42.6 °F 36.6 °F 29.93 in WNW 14.0 mph 20.0 mph 79 % 0.00 in 271 W/m2
12:39 42.8 °F 36.7 °F 29.93 in WNW 11.0 mph 18.0 mph 79 % 0.00 in 269 W/m2
12:44 43.0 °F 36.9 °F 29.93 in WNW 7.0 mph 12.0 mph 79 % 0.00 in 264 W/m2
12:49 43.0 °F 36.6 °F 29.93 in WNW 11.0 mph 14.0 mph 78 % 0.00 in 260 W/m2
12:54 43.2 °F 36.8 °F 29.93 in WNW 8.0 mph 11.0 mph 78 % 0.00 in 258 W/m2
12:59 43.3 °F 36.9 °F 29.93 in WNW 9.0 mph 16.0 mph 78 % 0.00 in 255 W/m2
13:04 43.5 °F 37.1 °F 29.94 in WNW 12.0 mph 19.0 mph 78 % 0.00 in 251 W/m2
13:09 43.5 °F 37.1 °F 29.94 in WNW 8.0 mph 13.0 mph 78 % 0.00 in 250 W/m2
13:14 43.5 °F 37.1 °F 29.93 in WNW 10.0 mph 14.0 mph 78 % 0.00 in 199 W/m2
13:19 43.3 °F 36.9 °F 29.93 in West 11.0 mph 21.0 mph 78 % 0.00 in 248 W/m2
13:24 43.2 °F 36.4 °F 29.94 in West 13.0 mph 22.0 mph 77 % 0.00 in 132 W/m2
13:29 42.6 °F 36.6 °F 29.94 in WNW 12.0 mph 21.0 mph 79 % 0.00 in 149 W/m2
13:34 42.3 °F 36.2 °F 29.94 in WNW 15.0 mph 23.0 mph 79 % 0.00 in 65 W/m2
13:39 41.7 °F 36.0 °F 29.94 in WNW 11.0 mph 16.0 mph 80 % 0.00 in 74 W/m2
13:44 41.2 °F 35.8 °F 29.94 in WNW 16.0 mph 24.0 mph 81 % 0.00 in 90 W/m2
13:49 40.8 °F 35.7 °F 29.94 in WNW 12.0 mph 20.0 mph 82 % 0.00 in 98 W/m2
13:54 40.6 °F 35.6 °F 29.94 in West 12.0 mph 20.0 mph 82 % 0.00 in 104 W/m2
13:59 40.6 °F 35.6 °F 29.94 in WNW 12.0 mph 19.0 mph 82 % 0.00 in 109 W/m2
14:04 40.6 °F 35.6 °F 29.94 in WNW 9.0 mph 13.0 mph 82 % 0.00 in 97 W/m2
14:09 40.6 °F 35.6 °F 29.94 in WNW 14.0 mph 21.0 mph 82 % 0.00 in 83 W/m2
14:14 40.6 °F 35.3 °F 29.94 in WNW 12.0 mph 19.0 mph 81 % 0.00 in 74 W/m2
14:19 40.5 °F 35.1 °F 29.94 in WNW 12.0 mph 19.0 mph 81 % 0.00 in 72 W/m2
14:24 40.5 °F 35.1 °F 29.94 in WNW 13.0 mph 20.0 mph 81 % 0.00 in 72 W/m2
14:29 40.5 °F 35.1 °F 29.94 in WNW 12.0 mph 18.0 mph 81 % 0.00 in 81 W/m2
14:30 40.5 °F 35.1 °F 29.94 in WNW 12.0 mph 18.0 mph 81 % 0.00 in 81 W/m2
14:35 40.5 °F 35.1 °F 29.94 in WNW 12.0 mph 18.0 mph 81 % 0.00 in 69 W/m2
14:40 40.5 °F 35.1 °F 29.94 in WNW 14.0 mph 23.0 mph 81 % 0.00 in 54 W/m2
14:45 40.5 °F 35.1 °F 29.95 in WNW 12.0 mph 18.0 mph 81 % 0.00 in 40 W/m2
14:50 40.3 °F 34.9 °F 29.95 in WNW 15.0 mph 23.0 mph 81 % 0.00 in 40 W/m2
14:55 40.3 °F 35.2 °F 29.95 in WNW 12.0 mph 20.0 mph 82 % 0.00 in 30 W/m2
15:00 40.1 °F 35.0 °F 29.96 in WNW 16.0 mph 26.0 mph 82 % 0.00 in 23 W/m2
15:05 39.9 °F 35.5 °F 29.96 in WNW 12.0 mph 18.0 mph 84 % 0.00 in 28 W/m2
15:10 39.7 °F 35.3 °F 29.96 in WNW 11.0 mph 21.0 mph 84 % 0.00 in 32 W/m2
15:15 39.4 °F 35.2 °F 29.96 in WNW 15.0 mph 22.0 mph 85 % 0.00 in 30 W/m2
15:20 39.0 °F 34.9 °F 29.95 in West 9.0 mph 14.0 mph 85 % 0.00 in 28 W/m2
15:24 38.8 °F 35.0 °F 29.95 in WNW 10.0 mph 15.0 mph 86 % 0.00 in 32 W/m2
15:29 38.8 °F 35.0 °F 29.96 in WNW 9.0 mph 13.0 mph 86 % 0.00 in 33 W/m2
15:34 38.7 °F 34.8 °F 29.96 in WNW 8.0 mph 14.0 mph 86 % 0.00 in 28 W/m2
15:39 38.5 °F 34.9 °F 29.96 in West 10.0 mph 16.0 mph 87 % 0.00 in 23 W/m2
15:44 38.5 °F 34.9 °F 29.96 in WNW 5.0 mph 10.0 mph 87 % 0.00 in 16 W/m2
15:49 38.3 °F 34.8 °F 29.96 in WNW 9.0 mph 13.0 mph 87 % 0.00 in 12 W/m2
15:54 38.3 °F 34.8 °F 29.96 in WNW 6.0 mph 12.0 mph 87 % 0.00 in 9 W/m2
15:59 38.1 °F 34.3 °F 29.96 in WNW 7.0 mph 12.0 mph 86 % 0.00 in 9 W/m2
16:04 38.1 °F 34.3 °F 29.96 in WNW 11.0 mph 19.0 mph 86 % 0.00 in 7 W/m2
16:09 38.1 °F 34.3 °F 29.96 in WNW 7.0 mph 14.0 mph 86 % 0.00 in 0 W/m2
16:14 38.1 °F 34.3 °F 29.96 in WNW 8.0 mph 14.0 mph 86 % 0.00 in 0 W/m2
16:19 38.1 °F 34.3 °F 29.97 in WNW 11.0 mph 18.0 mph 86 % 0.00 in 0 W/m2
16:24 38.3 °F 34.5 °F 29.96 in WNW 10.0 mph 18.0 mph 86 % 0.00 in 0 W/m2
16:29 38.3 °F 34.5 °F 29.96 in WNW 14.0 mph 22.0 mph 86 % 0.00 in 0 W/m2
16:34 38.1 °F 34.3 °F 29.96 in WNW 13.0 mph 21.0 mph 86 % 0.00 in 0 W/m2
16:39 38.1 °F 34.3 °F 29.96 in West 13.0 mph 20.0 mph 86 % 0.00 in 0 W/m2
16:45 38.1 °F 34.3 °F 29.96 in WNW 12.0 mph 16.0 mph 86 % 0.00 in 0 W/m2
16:49 38.1 °F 34.3 °F 29.97 in West 10.0 mph 14.0 mph 86 % 0.00 in 0 W/m2
16:54 37.9 °F 34.1 °F 29.97 in West 11.0 mph 18.0 mph 86 % 0.00 in 0 W/m2
17:00 38.1 °F 34.0 °F 29.96 in West 11.0 mph 19.0 mph 85 % 0.00 in 0 W/m2
17:05 38.1 °F 34.0 °F 29.97 in WNW 10.0 mph 16.0 mph 85 % 0.00 in 0 W/m2
17:10 38.1 °F 34.0 °F 29.97 in West 10.0 mph 18.0 mph 85 % 0.00 in 0 W/m2
17:15 38.1 °F 34.0 °F 29.97 in West 11.0 mph 16.0 mph 85 % 0.00 in 0 W/m2
17:20 37.9 °F 34.1 °F 29.97 in West 11.0 mph 18.0 mph 86 % 0.00 in 0 W/m2
17:25 37.9 °F 34.1 °F 29.97 in West 11.0 mph 20.0 mph 86 % 0.00 in 0 W/m2
17:30 37.9 °F 34.1 °F 29.97 in West 10.0 mph 14.0 mph 86 % 0.00 in 0 W/m2
17:35 37.9 °F 34.1 °F 29.98 in West 7.0 mph 11.0 mph 86 % 0.00 in 0 W/m2
17:40 37.9 °F 34.1 °F 29.98 in West 11.0 mph 19.0 mph 86 % 0.00 in 0 W/m2
17:45 38.1 °F 34.3 °F 29.98 in West 10.0 mph 15.0 mph 86 % 0.00 in 0 W/m2
17:50 38.1 °F 34.3 °F 29.97 in West 10.0 mph 18.0 mph 86 % 0.00 in 0 W/m2
17:55 38.3 °F 34.5 °F 29.98 in West 11.0 mph 14.0 mph 86 % 0.00 in 0 W/m2
18:00 38.3 °F 34.5 °F 29.98 in West 9.0 mph 16.0 mph 86 % 0.00 in 0 W/m2
18:05 38.1 °F 34.3 °F 29.98 in WNW 11.0 mph 16.0 mph 86 % 0.00 in 0 W/m2
18:10 38.3 °F 34.8 °F 29.98 in West 10.0 mph 15.0 mph 87 % 0.00 in 0 W/m2
18:15 38.3 °F 34.8 °F 29.98 in West 12.0 mph 23.0 mph 87 % 0.00 in 0 W/m2
18:20 38.3 °F 34.8 °F 29.98 in West 10.0 mph 16.0 mph 87 % 0.00 in 0 W/m2
18:25 38.3 °F 34.5 °F 29.98 in West 10.0 mph 20.0 mph 86 % 0.00 in 0 W/m2
18:30 38.5 °F 34.7 °F 29.98 in West 11.0 mph 20.0 mph 86 % 0.00 in 0 W/m2
18:35 38.5 °F 34.9 °F 29.98 in West 11.0 mph 18.0 mph 87 % 0.00 in 0 W/m2
18:40 38.5 °F 34.9 °F 29.98 in West 11.0 mph 16.0 mph 87 % 0.00 in 0 W/m2
18:45 38.5 °F 34.9 °F 29.98 in West 11.0 mph 20.0 mph 87 % 0.00 in 0 W/m2
18:50 38.5 °F 34.9 °F 29.98 in West 11.0 mph 16.0 mph 87 % 0.00 in 0 W/m2
18:56 38.5 °F 34.9 °F 29.98 in West 11.0 mph 18.0 mph 87 % 0.00 in 0 W/m2
19:01 38.7 °F 35.1 °F 29.98 in West 12.0 mph 23.0 mph 87 % 0.00 in 0 W/m2
19:06 38.8 °F 35.3 °F 29.98 in West 17.0 mph 26.0 mph 87 % 0.00 in 0 W/m2
19:11 38.8 °F 35.3 °F 29.99 in West 14.0 mph 23.0 mph 87 % 0.00 in 0 W/m2
19:16 38.8 °F 35.3 °F 29.99 in West 14.0 mph 23.0 mph 87 % 0.00 in 0 W/m2
19:21 38.7 °F 35.1 °F 29.99 in WNW 12.0 mph 23.0 mph 87 % 0.00 in 0 W/m2
19:26 38.7 °F 35.1 °F 29.99 in WNW 12.0 mph 19.0 mph 87 % 0.00 in 0 W/m2
19:31 38.5 °F 35.2 °F 30.00 in WNW 12.0 mph 19.0 mph 88 % 0.00 in 0 W/m2
19:36 38.3 °F 34.8 °F 30.00 in WNW 11.0 mph 16.0 mph 87 % 0.00 in 0 W/m2
19:41 38.1 °F 34.6 °F 30.00 in West 12.0 mph 20.0 mph 87 % 0.00 in 0 W/m2
19:46 38.1 °F 34.6 °F 30.00 in West 11.0 mph 20.0 mph 87 % 0.00 in 0 W/m2
19:51 38.1 °F 34.6 °F 30.00 in WNW 12.0 mph 18.0 mph 87 % 0.00 in 0 W/m2
19:56 38.1 °F 34.6 °F 30.00 in West 14.0 mph 23.0 mph 87 % 0.00 in 0 W/m2
20:01 38.1 °F 34.6 °F 30.00 in WNW 14.0 mph 22.0 mph 87 % 0.00 in 0 W/m2
20:06 38.3 °F 34.8 °F 30.00 in WNW 14.0 mph 20.0 mph 87 % 0.00 in 0 W/m2
20:11 38.3 °F 34.8 °F 30.00 in WNW 11.0 mph 18.0 mph 87 % 0.00 in 0 W/m2
20:16 38.1 °F 34.6 °F 30.00 in West 14.0 mph 23.0 mph 87 % 0.00 in 0 W/m2
20:21 38.1 °F 34.6 °F 30.01 in West 13.0 mph 21.0 mph 87 % 0.00 in 0 W/m2
20:26 38.1 °F 34.6 °F 30.01 in WNW 13.0 mph 21.0 mph 87 % 0.00 in 0 W/m2
20:31 38.1 °F 34.6 °F 30.01 in WNW 14.0 mph 21.0 mph 87 % 0.00 in 0 W/m2
20:36 38.1 °F 34.6 °F 30.00 in WNW 11.0 mph 20.0 mph 87 % 0.00 in 0 W/m2
20:41 38.1 °F 34.6 °F 30.01 in West 11.0 mph 20.0 mph 87 % 0.00 in 0 W/m2
20:46 38.1 °F 34.6 °F 30.01 in WNW 14.0 mph 24.0 mph 87 % 0.00 in 0 W/m2
20:51 38.1 °F 34.3 °F 30.01 in WNW 13.0 mph 23.0 mph 86 % 0.00 in 0 W/m2
20:56 38.1 °F 34.3 °F 30.01 in WNW 13.0 mph 20.0 mph 86 % 0.00 in 0 W/m2
21:01 38.1 °F 34.3 °F 30.01 in WNW 12.0 mph 19.0 mph 86 % 0.00 in 0 W/m2
21:06 38.1 °F 34.6 °F 30.01 in WNW 12.0 mph 18.0 mph 87 % 0.00 in 0 W/m2
21:11 37.9 °F 34.4 °F 30.01 in WNW 12.0 mph 19.0 mph 87 % 0.00 in 0 W/m2
21:16 37.9 °F 34.4 °F 30.01 in WNW 13.0 mph 18.0 mph 87 % 0.00 in 0 W/m2
21:21 37.9 °F 34.1 °F 30.01 in WNW 12.0 mph 18.0 mph 86 % 0.00 in 0 W/m2
21:26 37.9 °F 34.1 °F 30.01 in WNW 12.0 mph 15.0 mph 86 % 0.00 in 0 W/m2
21:36 38.1 °F 34.0 °F 30.02 in WNW 12.0 mph 19.0 mph 85 % 0.00 in 0 W/m2
21:41 38.3 °F 34.2 °F 30.02 in WNW 13.0 mph 20.0 mph 85 % 0.00 in 0 W/m2
21:46 38.5 °F 34.4 °F 30.02 in WNW 11.0 mph 19.0 mph 85 % 0.00 in 0 W/m2
21:51 38.5 °F 34.4 °F 30.02 in WNW 10.0 mph 19.0 mph 85 % 0.00 in 0 W/m2
21:56 38.5 °F 34.4 °F 30.02 in WNW 10.0 mph 18.0 mph 85 % 0.00 in 0 W/m2
22:01 38.3 °F 34.5 °F 30.02 in WNW 11.0 mph 16.0 mph 86 % 0.00 in 0 W/m2
22:07 38.3 °F 34.5 °F 30.03 in WNW 16.0 mph 25.0 mph 86 % 0.00 in 0 W/m2
22:12 38.5 °F 34.7 °F 30.02 in West 12.0 mph 20.0 mph 86 % 0.00 in 0 W/m2
22:17 38.3 °F 34.5 °F 30.02 in WNW 14.0 mph 22.0 mph 86 % 0.00 in 0 W/m2
22:22 38.1 °F 34.6 °F 30.03 in WNW 15.0 mph 25.0 mph 87 % 0.00 in 0 W/m2
22:27 38.1 °F 34.6 °F 30.03 in West 11.0 mph 21.0 mph 87 % 0.00 in 0 W/m2
22:32 37.9 °F 34.4 °F 30.03 in WNW 14.0 mph 24.0 mph 87 % 0.00 in 0 W/m2
22:37 37.8 °F 34.2 °F 30.03 in WNW 11.0 mph 18.0 mph 87 % 0.00 in 0 W/m2
22:42 37.8 °F 34.2 °F 30.03 in WNW 11.0 mph 20.0 mph 87 % 0.00 in 0 W/m2
22:47 37.8 °F 34.2 °F 30.03 in West 12.0 mph 18.0 mph 87 % 0.00 in 0 W/m2
22:52 37.6 °F 34.1 °F 30.03 in West 11.0 mph 16.0 mph 87 % 0.00 in 0 W/m2
22:57 37.8 °F 34.2 °F 30.03 in West 14.0 mph 19.0 mph 87 % 0.00 in 0 W/m2
23:02 37.8 °F 34.2 °F 30.03 in West 12.0 mph 19.0 mph 87 % 0.00 in 0 W/m2
23:07 37.8 °F 34.2 °F 30.03 in West 16.0 mph 24.0 mph 87 % 0.00 in 0 W/m2
23:12 37.8 °F 34.2 °F 30.02 in West 14.0 mph 24.0 mph 87 % 0.00 in 0 W/m2
23:17 37.9 °F 34.4 °F 30.03 in West 13.0 mph 20.0 mph 87 % 0.00 in 0 W/m2
23:22 37.9 °F 34.4 °F 30.03 in West 14.0 mph 22.0 mph 87 % 0.00 in 0 W/m2
23:27 37.9 °F 34.4 °F 30.03 in West 14.0 mph 23.0 mph 87 % 0.00 in 0 W/m2
23:32 37.9 °F 34.1 °F 30.03 in West 11.0 mph 19.0 mph 86 % 0.00 in 0 W/m2
23:37 37.9 °F 34.1 °F 30.03 in West 12.0 mph 21.0 mph 86 % 0.00 in 0 W/m2
23:42 37.9 °F 34.4 °F 30.03 in West 13.0 mph 20.0 mph 87 % 0.00 in 0 W/m2
23:47 37.9 °F 34.4 °F 30.03 in West 15.0 mph 24.0 mph 87 % 0.00 in 0 W/m2
23:52 37.9 °F 34.4 °F 30.03 in West 14.0 mph 21.0 mph 87 % 0.00 in 0 W/m2
23:57 38.1 °F 34.6 °F 30.04 in WNW 14.0 mph 22.0 mph 87 % 0.00 in 0 W/m2
Delerius-Weather
Compliments of Weather Underground - 2.25 mb

Data updates at regular intervals.